Time;durP1;ratioP1;P1;durP2;ratioP2;P2;SDS_P1;SDS_P2;PMS_P1;PMS_P2;Temp;Humidity;BMP_temperature;BMP_pressure;BME280_temperature;BME280_humidity;BME280_pressure;Samples;Min_cycle;Max_cycle;Signal;HPM_P1;HPM_P2
2024/01/07 00:00:02;;;;;;;22.23;12.52;;;0.60;99.90;;;;;;4867296;29;20054;-76
2024/01/07 00:02:27;;;;;;;20.25;12.15;;;0.60;99.90;;;;;;4864030;29;20101;-75
2024/01/07 00:04:53;;;;;;;20.67;11.70;;;0.60;99.90;;;;;;4870068;29;20071;-75
2024/01/07 00:07:20;;;;;;;18.88;11.77;;;0.60;99.90;;;;;;4872946;29;20408;-76
2024/01/07 00:09:46;;;;;;;21.75;12.15;;;0.60;99.90;;;;;;4875693;29;20136;-76
2024/01/07 00:12:12;;;;;;;17.60;10.40;;;0.60;99.90;;;;;;4885189;29;20484;-76
2024/01/07 00:14:37;;;;;;;18.48;11.27;;;0.60;99.90;;;;;;4865040;29;20719;-75
2024/01/07 00:17:03;;;;;;;20.70;12.30;;;0.60;99.90;;;;;;4866168;29;20056;-76
2024/01/07 00:19:31;;;;;;;20.30;12.05;;;0.60;99.90;;;;;;4886415;29;20047;-75
2024/01/07 00:21:57;;;;;;;;;;;0.60;99.90;;;;;;4870239;29;20144;-75
2024/01/07 00:24:25;;;;;;;20.55;10.98;;;0.60;99.90;;;;;;4871023;29;20479;-75
2024/01/07 00:26:51;;;;;;;21.88;11.70;;;0.60;99.90;;;;;;4870144;29;20077;-76
2024/01/07 00:29:16;;;;;;;22.20;11.55;;;0.60;99.90;;;;;;4881736;29;20078;-76
2024/01/07 00:31:42;;;;;;;16.27;9.68;;;0.60;99.90;;;;;;4865357;29;20527;-76
2024/01/07 00:34:08;;;;;;;18.83;11.25;;;0.60;99.90;;;;;;4860631;29;20055;-75
2024/01/07 00:36:33;;;;;;;20.33;10.05;;;0.60;99.90;;;;;;4865945;29;20084;-75
2024/01/07 00:38:59;;;;;;;15.55;9.25;;;0.60;99.90;;;;;;4842754;29;20133;-75
2024/01/07 00:41:24;;;;;;;16.35;9.90;;;0.60;99.90;;;;;;4856741;29;20049;-76
2024/01/07 00:43:50;;;;;;;15.95;9.27;;;0.60;99.90;;;;;;4855472;29;20393;-76
2024/01/07 00:46:16;;;;;;;20.02;9.90;;;0.60;99.90;;;;;;4856655;29;20052;-75
2024/01/07 00:48:41;;;;;;;20.73;9.77;;;0.60;99.90;;;;;;4853545;29;20465;-75
2024/01/07 00:51:07;;;;;;;16.63;9.50;;;0.60;99.90;;;;;;4878502;29;20113;-76
2024/01/07 00:53:33;;;;;;;17.50;9.68;;;0.60;99.90;;;;;;4882886;29;20121;-75
2024/01/07 00:55:58;;;;;;;17.13;9.40;;;0.60;99.90;;;;;;4865268;29;20078;-73
2024/01/07 00:58:24;;;;;;;16.98;9.95;;;0.60;99.90;;;;;;4870141;29;20037;-74
2024/01/07 01:00:50;;;;;;;17.65;9.38;;;0.60;99.90;;;;;;4895669;29;20448;-73
2024/01/07 01:03:16;;;;;;;17.88;10.07;;;0.60;99.90;;;;;;4874503;29;20505;-74
2024/01/07 01:05:42;;;;;;;13.95;8.30;;;0.60;99.90;;;;;;4876581;29;20084;-74
2024/01/07 01:08:07;;;;;;;17.50;9.57;;;0.60;99.90;;;;;;4871675;29;20049;-74
2024/01/07 01:10:33;;;;;;;15.68;8.55;;;0.50;99.90;;;;;;4877854;29;20072;-74
2024/01/07 01:12:59;;;;;;;14.02;8.52;;;0.50;99.90;;;;;;4872594;29;20124;-74
2024/01/07 01:15:24;;;;;;;15.07;8.63;;;0.50;99.90;;;;;;4868031;29;20053;-74
2024/01/07 01:17:50;;;;;;;15.27;8.77;;;0.50;99.90;;;;;;4858045;29;20458;-73
2024/01/07 01:20:16;;;;;;;16.65;9.35;;;0.50;99.90;;;;;;4879457;29;20047;-74
2024/01/07 01:22:41;;;;;;;13.80;7.97;;;0.50;99.90;;;;;;4871390;29;20049;-74
2024/01/07 01:25:07;;;;;;;15.55;7.95;;;0.50;99.90;;;;;;4870407;29;20127;-74
2024/01/07 01:27:33;;;;;;;16.50;8.82;;;0.50;99.90;;;;;;4874994;29;20050;-74
2024/01/07 01:29:58;;;;;;;13.52;8.05;;;0.50;99.90;;;;;;4866603;29;20049;-73
2024/01/07 01:32:24;;;;;;;16.80;8.65;;;0.50;99.90;;;;;;4848430;29;20042;-74
2024/01/07 01:34:50;;;;;;;18.73;9.00;;;0.50;99.90;;;;;;4867788;29;20155;-73
2024/01/07 01:37:15;;;;;;;17.70;9.10;;;0.50;99.90;;;;;;4865667;29;20063;-74
2024/01/07 01:39:41;;;;;;;15.07;8.80;;;0.50;99.90;;;;;;4873748;29;20083;-74
2024/01/07 01:42:07;;;;;;;13.88;8.65;;;0.50;99.90;;;;;;4853538;29;20619;-74
2024/01/07 01:44:33;;;;;;;16.92;9.20;;;0.50;99.90;;;;;;4869766;29;20474;-74
2024/01/07 01:47:00;;;;;;;13.82;8.00;;;0.50;99.90;;;;;;4878362;29;20037;-74
2024/01/07 01:49:26;;;;;;;13.27;7.50;;;0.50;99.90;;;;;;4865230;29;20660;-74
2024/01/07 01:51:55;;;;;;;14.93;8.30;;;0.50;99.90;;;;;;4882042;29;20083;-74
2024/01/07 01:54:21;;;;;;;14.00;8.30;;;0.50;99.90;;;;;;4877893;29;20582;-74
2024/01/07 01:56:48;;;;;;;13.02;7.90;;;0.50;99.90;;;;;;4884613;29;20073;-74
2024/01/07 01:59:15;;;;;;;14.50;8.45;;;0.50;99.90;;;;;;4867209;29;20045;-74
2024/01/07 02:01:41;;;;;;;15.88;9.73;;;0.50;99.90;;;;;;4871062;29;20092;-73
2024/01/07 02:04:08;;;;;;;15.02;7.43;;;0.50;99.90;;;;;;4862458;29;20445;-74
2024/01/07 02:06:34;;;;;;;16.33;7.85;;;0.50;99.90;;;;;;4875658;29;20121;-74
2024/01/07 02:08:59;;;;;;;14.35;8.40;;;0.50;99.90;;;;;;4873555;29;20135;-74
2024/01/07 02:11:25;;;;;;;13.48;8.60;;;0.50;99.90;;;;;;4883666;29;20458;-74
2024/01/07 02:13:51;;;;;;;18.15;9.52;;;0.50;99.90;;;;;;4871242;29;20041;-74
2024/01/07 02:16:16;;;;;;;17.13;9.23;;;0.50;99.90;;;;;;4864242;29;20077;-74
2024/01/07 02:18:44;;;;;;;15.45;8.02;;;0.50;99.90;;;;;;4881115;29;20064;-74
2024/01/07 02:21:10;;;;;;;17.00;8.68;;;0.60;99.90;;;;;;4867555;29;20076;-74
2024/01/07 02:23:36;;;;;;;14.50;8.20;;;0.60;99.90;;;;;;4871578;29;20079;-74
2024/01/07 02:26:02;;;;;;;14.60;8.43;;;0.60;99.90;;;;;;4879405;29;20084;-74
2024/01/07 02:28:29;;;;;;;14.27;7.90;;;0.60;99.90;;;;;;4861912;29;20082;-74
2024/01/07 02:30:55;;;;;;;;;;;0.60;99.90;;;;;;4880675;29;20540;-74
2024/01/07 02:33:20;;;;;;;14.13;7.50;;;0.50;99.90;;;;;;4874077;29;19935;-74
2024/01/07 02:35:46;;;;;;;13.82;7.55;;;0.50;99.90;;;;;;4863768;29;20261;-73
2024/01/07 02:38:12;;;;;;;14.73;7.10;;;0.50;99.90;;;;;;4845524;29;20144;-73
2024/01/07 02:40:37;;;;;;;12.48;7.55;;;0.50;99.90;;;;;;4867240;29;20689;-74
2024/01/07 02:43:03;;;;;;;13.57;7.18;;;0.50;99.90;;;;;;4865035;29;20045;-74
2024/01/07 02:45:29;;;;;;;14.68;7.68;;;0.50;99.90;;;;;;4877217;29;20104;-74
2024/01/07 02:47:54;;;;;;;13.27;7.80;;;0.50;99.90;;;;;;4881388;29;20045;-74
2024/01/07 02:50:20;;;;;;;13.80;7.93;;;0.50;99.90;;;;;;4854879;29;20055;-74
2024/01/07 02:52:45;;;;;;;12.88;7.45;;;0.50;99.90;;;;;;4862016;29;20147;-74
2024/01/07 02:55:11;;;;;;;15.02;8.55;;;0.50;99.90;;;;;;4877379;29;20048;-74
2024/01/07 02:57:37;;;;;;;13.68;8.05;;;0.50;99.90;;;;;;4860489;29;20041;-73
2024/01/07 03:00:04;;;;;;;16.65;9.23;;;0.50;99.90;;;;;;4876636;29;20048;-74
2024/01/07 03:02:30;;;;;;;15.27;9.10;;;0.50;99.90;;;;;;4875297;29;20045;-73
2024/01/07 03:04:56;;;;;;;12.50;7.95;;;0.50;99.90;;;;;;4868171;29;20097;-74
2024/01/07 03:07:21;;;;;;;15.75;9.32;;;0.50;99.90;;;;;;4869807;29;20189;-74
2024/01/07 03:09:48;;;;;;;15.15;9.20;;;0.50;99.90;;;;;;4874302;29;20417;-74
2024/01/07 03:12:18;;;;;;;13.43;8.57;;;0.50;99.90;;;;;;4874103;29;20131;-74
2024/01/07 03:14:44;;;;;;;12.43;7.95;;;0.50;99.90;;;;;;4850427;29;20128;-74
2024/01/07 03:17:10;;;;;;;13.90;8.85;;;0.50;99.90;;;;;;4875705;29;20127;-74
2024/01/07 03:19:37;;;;;;;16.27;9.57;;;0.40;99.90;;;;;;4873968;29;20045;-74
2024/01/07 03:22:03;;;;;;;12.70;8.02;;;0.50;99.90;;;;;;4881675;29;20047;-74
2024/01/07 03:24:29;;;;;;;14.18;8.60;;;0.50;99.90;;;;;;4872542;29;20124;-74
2024/01/07 03:26:54;;;;;;;11.85;7.72;;;0.50;99.90;;;;;;4875851;29;20096;-74
2024/01/07 03:29:20;;;;;;;16.13;9.05;;;0.40;99.90;;;;;;4875193;29;20037;-74
2024/01/07 03:31:46;;;;;;;14.95;8.40;;;0.50;99.90;;;;;;4889544;29;20121;-74
2024/01/07 03:34:11;;;;;;;14.02;7.82;;;0.40;99.90;;;;;;4877693;29;20402;-74
2024/01/07 03:36:37;;;;;;;13.38;8.80;;;0.40;99.90;;;;;;4875335;29;20056;-74
2024/01/07 03:39:03;;;;;;;18.42;9.25;;;0.40;99.90;;;;;;4888463;29;20059;-74
2024/01/07 03:41:28;;;;;;;14.88;9.45;;;0.40;99.90;;;;;;4872121;29;20052;-73
2024/01/07 03:43:54;;;;;;;15.93;9.43;;;0.40;99.90;;;;;;4886720;29;20104;-74
2024/01/07 03:46:20;;;;;;;13.23;8.75;;;0.40;99.90;;;;;;4872696;29;20044;-74
2024/01/07 03:48:46;;;;;;;14.30;8.73;;;0.40;99.90;;;;;;4870107;29;20055;-74
2024/01/07 03:51:12;;;;;;;15.38;8.57;;;0.40;99.90;;;;;;4859406;29;20064;-74
2024/01/07 03:53:37;;;;;;;15.10;8.65;;;0.40;99.90;;;;;;4859343;29;20170;-73
2024/01/07 03:56:03;;;;;;;14.85;8.15;;;0.40;99.90;;;;;;4870746;29;20053;-74
2024/01/07 03:58:29;;;;;;;15.02;8.73;;;0.30;99.90;;;;;;4875743;29;20524;-74
2024/01/07 04:00:54;;;;;;;16.15;9.43;;;0.40;99.90;;;;;;4853497;29;20430;-73
2024/01/07 04:03:20;;;;;;;17.23;9.18;;;0.30;99.90;;;;;;4879440;29;20060;-74
2024/01/07 04:05:45;;;;;;;15.10;9.02;;;0.30;99.90;;;;;;4858506;29;20124;-74
2024/01/07 04:08:12;;;;;;;17.13;9.10;;;0.30;99.90;;;;;;4885696;29;20490;-74
2024/01/07 04:10:38;;;;;;;15.43;9.00;;;0.30;99.90;;;;;;4870341;29;20064;-74
2024/01/07 04:13:06;;;;;;;12.68;8.27;;;0.30;99.90;;;;;;4856057;29;20063;-74
2024/01/07 04:15:32;;;;;;;12.90;8.10;;;0.40;99.90;;;;;;4875573;29;20045;-74
2024/01/07 04:18:04;;;;;;;13.57;7.57;;;0.40;99.90;;;;;;4852745;29;20120;-73
2024/01/07 04:20:30;;;;;;;14.43;8.02;;;0.40;99.90;;;;;;4850766;29;20659;-73
2024/01/07 04:22:57;;;;;;;14.45;8.98;;;0.40;99.90;;;;;;4855207;29;20064;-73
2024/01/07 04:25:26;;;;;;;12.82;8.32;;;0.40;99.90;;;;;;4889901;29;20051;-74
2024/01/07 04:27:51;;;;;;;15.38;9.70;;;0.30;99.90;;;;;;4869755;29;20052;-74
2024/01/07 04:30:17;;;;;;;13.23;7.88;;;0.30;99.90;;;;;;4866357;29;20411;-74
2024/01/07 04:32:43;;;;;;;12.25;7.78;;;0.30;99.90;;;;;;4870604;29;20048;-73
2024/01/07 04:35:08;;;;;;;10.48;6.15;;;0.20;99.90;;;;;;4876079;29;20446;-74
2024/01/07 04:37:38;;;;;;;10.15;5.65;;;0.20;99.90;;;;;;4877218;29;20041;-74
2024/01/07 04:40:04;;;;;;;11.68;6.85;;;0.20;99.90;;;;;;4844619;29;20562;-74
2024/01/07 04:42:29;;;;;;;10.95;5.90;;;0.20;99.90;;;;;;4877930;29;20053;-74
2024/01/07 04:44:55;;;;;;;9.55;5.75;;;0.20;99.90;;;;;;4873702;29;20406;-74
2024/01/07 04:47:30;;;;;;;10.18;6.03;;;0.20;99.90;;;;;;4855916;29;20045;-74
2024/01/07 04:49:57;;;;;;;13.13;5.82;;;0.20;99.90;;;;;;4857478;29;20053;-73
2024/01/07 04:52:23;;;;;;;12.85;7.00;;;0.10;99.90;;;;;;4853575;29;20052;-74
2024/01/07 04:54:50;;;;;;;12.88;8.48;;;0.10;99.90;;;;;;4878220;29;20070;-74
2024/01/07 04:57:16;;;;;;;14.48;9.23;;;0.10;99.90;;;;;;4870072;29;20059;-74
2024/01/07 04:59:42;;;;;;;14.32;8.65;;;0.10;99.90;;;;;;4875840;29;20128;-74
2024/01/07 05:02:07;;;;;;;16.40;8.75;;;0.10;99.90;;;;;;4880007;29;20048;-74
2024/01/07 05:04:33;;;;;;;13.95;8.05;;;0.20;99.90;;;;;;4868715;29;20044;-74
2024/01/07 05:06:58;;;;;;;11.60;7.03;;;0.10;99.90;;;;;;4874166;29;20506;-74
2024/01/07 05:09:24;;;;;;;12.43;7.32;;;0.20;99.90;;;;;;4864175;29;20129;-74
2024/01/07 05:11:50;;;;;;;11.68;6.72;;;0.20;99.90;;;;;;4874791;29;20041;-74
2024/01/07 05:14:15;;;;;;;12.65;7.28;;;0.10;99.90;;;;;;4878959;29;20049;-74
2024/01/07 05:16:41;;;;;;;10.50;5.63;;;0.10;99.90;;;;;;4860347;29;20059;-74
2024/01/07 05:19:06;;;;;;;10.82;6.65;;;0.10;99.90;;;;;;4881565;29;20049;-74
2024/01/07 05:21:32;;;;;;;9.50;5.47;;;0.10;99.90;;;;;;4880492;29;20045;-74
2024/01/07 05:23:58;;;;;;;10.32;5.80;;;0.10;99.90;;;;;;4855890;29;20571;-74
2024/01/07 05:26:23;;;;;;;10.75;5.88;;;0.10;99.90;;;;;;4880925;29;20366;-74
2024/01/07 05:28:49;;;;;;;14.75;6.22;;;0.10;99.90;;;;;;4877191;29;20393;-74
2024/01/07 05:31:18;;;;;;;10.98;5.93;;;0.10;99.90;;;;;;4874733;29;20051;-74
2024/01/07 05:33:44;;;;;;;11.20;6.47;;;0.00;99.90;;;;;;4876239;29;20068;-74
2024/01/07 05:36:14;;;;;;;10.45;5.85;;;0.00;99.90;;;;;;4861605;29;20052;-74
2024/01/07 05:38:42;;;;;;;11.43;6.30;;;0.00;99.90;;;;;;4873384;29;20577;-74
2024/01/07 05:41:07;;;;;;;14.38;6.65;;;0.00;99.90;;;;;;4885636;29;20057;-73
2024/01/07 05:43:35;;;;;;;10.70;6.70;;;0.00;99.90;;;;;;4881357;29;20047;-73
2024/01/07 05:46:01;;;;;;;12.07;7.10;;;0.00;99.90;;;;;;4866603;29;20115;-73
2024/01/07 05:48:26;;;;;;;9.85;6.30;;;0.00;99.90;;;;;;4872238;29;20045;-73
2024/01/07 05:50:52;;;;;;;11.32;5.55;;;0.00;99.90;;;;;;4878035;29;20051;-73
2024/01/07 05:53:18;;;;;;;9.60;5.07;;;0.00;99.90;;;;;;4844050;29;20108;-74
2024/01/07 05:55:43;;;;;;;11.90;5.70;;;0.00;99.90;;;;;;4864677;29;20040;-73
2024/01/07 05:58:09;;;;;;;9.07;4.78;;;0.00;99.90;;;;;;4861524;29;20076;-73
2024/01/07 06:00:34;;;;;;;9.07;5.15;;;0.00;99.90;;;;;;4887690;29;20415;-73
2024/01/07 06:03:00;;;;;;;9.73;5.45;;;0.00;99.90;;;;;;4870563;29;20049;-74
2024/01/07 06:05:26;;;;;;;9.63;4.85;;;0.00;99.90;;;;;;4860811;29;20642;-73
2024/01/07 06:07:52;;;;;;;9.52;4.60;;;0.00;99.90;;;;;;4857984;29;20396;-73
2024/01/07 06:10:17;;;;;;;6.90;4.10;;;0.00;99.90;;;;;;4883120;29;20049;-74
2024/01/07 06:12:43;;;;;;;7.68;3.70;;;0.00;99.90;;;;;;4854284;29;20489;-73
2024/01/07 06:15:09;;;;;;;7.15;3.80;;;0.00;99.90;;;;;;4869804;29;20045;-73
2024/01/07 06:17:34;;;;;;;6.07;3.78;;;0.00;99.90;;;;;;4862453;29;20538;-73
2024/01/07 06:20:00;;;;;;;8.45;3.45;;;0.00;99.90;;;;;;4869850;29;20104;-73
2024/01/07 06:22:26;;;;;;;8.25;3.85;;;0.00;99.90;;;;;;4882279;29;20567;-73
2024/01/07 06:24:52;;;;;;;7.07;3.35;;;0.00;99.90;;;;;;4877502;29;20033;-73
2024/01/07 06:27:17;;;;;;;6.95;3.38;;;0.00;99.90;;;;;;4866033;29;20706;-73
2024/01/07 06:29:43;;;;;;;7.28;3.80;;;0.00;99.90;;;;;;4865276;29;20057;-73
2024/01/07 06:32:09;;;;;;;6.30;3.08;;;0.00;99.90;;;;;;4868076;29;20036;-73
2024/01/07 06:34:35;;;;;;;7.10;3.03;;;0.10;99.90;;;;;;4869698;29;20409;-73
2024/01/07 06:37:01;;;;;;;6.38;3.35;;;0.10;99.90;;;;;;4877286;29;20052;-73
2024/01/07 06:39:27;;;;;;;6.00;2.92;;;0.00;99.90;;;;;;4872142;29;20462;-73
2024/01/07 06:41:53;;;;;;;6.15;2.92;;;0.10;99.90;;;;;;4868070;29;20467;-73
2024/01/07 06:44:18;;;;;;;7.35;3.45;;;0.00;99.90;;;;;;4864692;29;20393;-73
2024/01/07 06:46:44;;;;;;;5.72;3.17;;;0.00;99.90;;;;;;4870972;29;20167;-73
2024/01/07 06:49:10;;;;;;;7.32;3.42;;;0.10;99.90;;;;;;4848347;29;20101;-73
2024/01/07 06:51:35;;;;;;;5.45;2.70;;;0.10;99.90;;;;;;4867265;29;20041;-73
2024/01/07 06:54:01;;;;;;;4.82;2.75;;;0.10;99.90;;;;;;4842564;29;20062;-73
2024/01/07 06:56:26;;;;;;;4.53;2.58;;;0.10;99.90;;;;;;4859568;29;20049;-73
2024/01/07 06:58:52;;;;;;;3.95;2.30;;;0.10;99.90;;;;;;4887824;29;20053;-73
2024/01/07 07:01:21;;;;;;;4.70;2.90;;;0.10;99.90;;;;;;4877944;29;20073;-73
2024/01/07 07:03:47;;;;;;;5.72;2.85;;;0.10;99.90;;;;;;4852195;29;20441;-74
2024/01/07 07:06:12;;;;;;;6.18;2.78;;;0.10;99.90;;;;;;4876426;29;20117;-74
2024/01/07 07:08:38;;;;;;;6.50;2.90;;;0.10;99.90;;;;;;4849175;29;20053;-73
2024/01/07 07:11:04;;;;;;;7.60;2.63;;;0.10;99.90;;;;;;4877991;29;20045;-73
2024/01/07 07:13:29;;;;;;;6.10;2.40;;;0.10;99.90;;;;;;4865452;29;20080;-74
2024/01/07 07:15:55;;;;;;;3.97;2.53;;;0.10;99.90;;;;;;4870235;29;20129;-73
2024/01/07 07:18:21;;;;;;;5.40;2.55;;;0.10;99.90;;;;;;4873161;29;20113;-73
2024/01/07 07:20:47;;;;;;;6.03;2.50;;;0.10;99.90;;;;;;4877151;29;20044;-73
2024/01/07 07:23:13;;;;;;;7.57;2.90;;;0.10;99.90;;;;;;4883692;29;20056;-73
2024/01/07 07:25:39;;;;;;;5.20;2.28;;;0.10;99.90;;;;;;4870030;29;20131;-73
2024/01/07 07:28:05;;;;;;;4.13;2.53;;;0.10;99.90;;;;;;4871952;29;20125;-73
2024/01/07 07:30:30;;;;;;;5.82;2.53;;;0.10;99.90;;;;;;4866842;29;20140;-73
2024/01/07 07:32:56;;;;;;;4.63;2.38;;;0.10;99.90;;;;;;4853924;29;20042;-74
2024/01/07 07:35:22;;;;;;;4.40;2.40;;;0.10;99.90;;;;;;4869709;29;20060;-73
2024/01/07 07:37:47;;;;;;;4.97;2.40;;;0.10;99.90;;;;;;4866530;29;20053;-73
2024/01/07 07:40:13;;;;;;;4.53;2.42;;;0.10;99.90;;;;;;4864872;29;20406;-73
2024/01/07 07:42:39;;;;;;;4.78;2.53;;;0.10;99.90;;;;;;4875037;29;20088;-73
2024/01/07 07:45:05;;;;;;;6.20;2.50;;;0.00;99.90;;;;;;4878699;29;20404;-73
2024/01/07 07:47:31;;;;;;;5.35;2.08;;;0.00;99.90;;;;;;4861973;29;20045;-73
2024/01/07 07:49:57;;;;;;;4.55;1.98;;;0.00;99.90;;;;;;4867282;29;20049;-73
2024/01/07 07:52:25;;;;;;;5.53;2.13;;;-0.10;99.90;;;;;;4869811;29;20131;-74
2024/01/07 07:54:52;;;;;;;4.25;2.17;;;0.00;99.90;;;;;;4885386;29;20053;-73
2024/01/07 07:57:20;;;;;;;3.72;2.38;;;-0.10;99.90;;;;;;4876755;29;20496;-73
2024/01/07 07:59:46;;;;;;;4.78;2.58;;;-0.10;99.90;;;;;;4862568;29;20457;-73
2024/01/07 08:02:12;;;;;;;6.85;2.33;;;-0.10;99.90;;;;;;4875142;29;20072;-73
2024/01/07 08:04:41;;;;;;;5.22;1.92;;;-0.10;99.90;;;;;;4872015;29;20390;-73
2024/01/07 08:07:07;;;;;;;3.28;2.17;;;-0.10;99.90;;;;;;4858033;29;20131;-73
2024/01/07 08:09:33;;;;;;;3.33;1.80;;;-0.10;99.90;;;;;;4881341;29;20064;-74
2024/01/07 08:11:58;;;;;;;3.47;1.70;;;-0.10;99.90;;;;;;4871668;29;20310;-75
2024/01/07 08:14:24;;;;;;;7.22;2.05;;;-0.10;99.90;;;;;;4864703;29;20401;-75
2024/01/07 08:16:50;;;;;;;3.67;1.42;;;-0.10;99.90;;;;;;4884537;29;20049;-75
2024/01/07 08:19:15;;;;;;;4.60;1.85;;;-0.10;99.90;;;;;;4878393;29;20041;-82
2024/01/07 08:21:41;;;;;;;3.83;1.85;;;-0.10;99.90;;;;;;4858089;29;20399;-75
2024/01/07 08:24:06;;;;;;;2.95;1.90;;;-0.10;99.90;;;;;;4885144;29;20048;-76
2024/01/07 08:26:32;;;;;;;4.22;1.70;;;-0.10;99.90;;;;;;4871458;29;20132;-80
2024/01/07 08:28:58;;;;;;;4.68;1.70;;;-0.10;99.90;;;;;;4888454;29;20052;-78
2024/01/07 08:31:23;;;;;;;3.40;1.90;;;-0.10;99.90;;;;;;4859695;29;20041;-75
2024/01/07 08:33:49;;;;;;;2.42;1.60;;;-0.20;99.90;;;;;;4883490;29;20091;-74
2024/01/07 08:36:15;;;;;;;5.07;1.67;;;-0.20;99.90;;;;;;4860863;29;20101;-75
2024/01/07 08:38:40;;;;;;;4.07;1.67;;;-0.20;99.90;;;;;;4869387;29;20430;-77
2024/01/07 08:41:06;;;;;;;3.03;1.60;;;-0.20;99.90;;;;;;4871730;29;20087;-72
2024/01/07 08:43:32;;;;;;;2.70;1.73;;;-0.20;99.90;;;;;;4871780;29;20049;-74
2024/01/07 08:45:58;;;;;;;3.95;1.80;;;-0.20;99.90;;;;;;4875759;29;20058;-74
2024/01/07 08:48:23;;;;;;;3.22;1.52;;;-0.20;99.90;;;;;;4879845;29;20105;-73
2024/01/07 08:50:50;;;;;;;2.97;1.92;;;-0.20;99.90;;;;;;4872924;29;20060;-72
2024/01/07 08:53:16;;;;;;;6.60;2.80;;;-0.20;99.90;;;;;;4858768;29;20056;-72
2024/01/07 08:55:41;;;;;;;3.08;1.42;;;-0.20;99.90;;;;;;4864137;29;20053;-72
2024/01/07 08:58:07;;;;;;;4.15;1.88;;;-0.20;99.90;;;;;;4874074;29;20060;-73
2024/01/07 09:00:32;;;;;;;6.38;1.98;;;-0.20;99.90;;;;;;4868672;29;20052;-72
2024/01/07 09:02:58;;;;;;;4.53;2.13;;;-0.20;99.90;;;;;;4844930;29;20065;-75
2024/01/07 09:05:24;;;;;;;2.65;1.50;;;-0.20;99.90;;;;;;4869023;29;20049;-76
2024/01/07 09:07:50;;;;;;;2.70;1.40;;;-0.20;99.90;;;;;;4881388;29;20049;-77
2024/01/07 09:10:15;;;;;;;3.13;1.88;;;-0.20;99.90;;;;;;4862909;29;20109;-77
2024/01/07 09:12:41;;;;;;;3.75;1.77;;;-0.10;99.90;;;;;;4853698;29;20049;-76
2024/01/07 09:15:08;;;;;;;2.72;1.80;;;-0.10;99.90;;;;;;4858235;29;20068;-76
2024/01/07 09:17:42;;;;;;;3.33;1.50;;;-0.10;99.90;;;;;;4856168;29;20048;-76
2024/01/07 09:20:10;;;;;;;3.67;1.75;;;-0.10;99.90;;;;;;4857506;29;20353;-76
2024/01/07 09:22:36;;;;;;;3.30;1.63;;;-0.10;99.90;;;;;;4864216;29;20530;-77
2024/01/07 09:25:03;;;;;;;3.53;1.70;;;0.00;99.90;;;;;;4866427;29;20056;-75
2024/01/07 09:27:29;;;;;;;6.13;2.42;;;0.00;99.90;;;;;;4876305;29;20457;-76
2024/01/07 09:29:55;;;;;;;2.42;1.58;;;0.00;99.90;;;;;;4889723;29;20747;-76
2024/01/07 09:32:21;;;;;;;2.38;1.60;;;0.00;99.90;;;;;;4874332;29;20057;-76
2024/01/07 09:34:47;;;;;;;4.75;1.65;;;0.10;99.90;;;;;;4853782;29;20089;-76
2024/01/07 09:37:12;;;;;;;3.65;2.00;;;0.10;99.90;;;;;;4860985;29;20056;-76
2024/01/07 09:39:41;;;;;;;3.55;1.55;;;0.10;99.90;;;;;;4858800;29;20552;-76
2024/01/07 09:42:13;;;;;;;3.22;1.50;;;0.10;99.90;;;;;;4870392;29;20100;-76
2024/01/07 09:44:40;;;;;;;3.15;1.70;;;0.20;99.90;;;;;;4861023;29;20056;-76
2024/01/07 09:47:10;;;;;;;3.75;1.73;;;0.20;99.90;;;;;;4852860;29;20049;-76
2024/01/07 09:49:36;;;;;;;3.47;1.63;;;0.20;99.90;;;;;;4868858;29;20855;-77
2024/01/07 09:52:04;;;;;;;3.17;1.60;;;0.30;99.90;;;;;;4875324;29;20072;-77
2024/01/07 09:54:30;;;;;;;3.88;1.90;;;0.30;99.90;;;;;;4855940;29;20176;-77
2024/01/07 09:57:02;;;;;;;5.13;1.83;;;0.30;99.90;;;;;;4872356;29;20124;-75
2024/01/07 09:59:31;;;;;;;5.15;1.75;;;0.30;99.90;;;;;;4863325;29;20078;-76
2024/01/07 10:01:57;;;;;;;4.65;1.90;;;0.40;99.90;;;;;;4860644;29;20546;-76
2024/01/07 10:04:24;;;;;;;3.45;1.52;;;0.40;99.90;;;;;;4861751;29;20649;-77
2024/01/07 10:06:50;;;;;;;4.13;1.70;;;0.50;99.90;;;;;;4864263;29;20119;-77
2024/01/07 10:09:17;;;;;;;4.10;1.73;;;0.50;99.90;;;;;;4864437;29;20132;-77
2024/01/07 10:11:43;;;;;;;3.28;1.58;;;0.60;99.90;;;;;;4844768;29;20901;-78
2024/01/07 10:14:09;;;;;;;2.80;1.75;;;0.60;99.90;;;;;;4873434;29;20081;-77
2024/01/07 10:16:35;;;;;;;3.00;1.65;;;0.60;99.90;;;;;;4871222;29;20123;-78
2024/01/07 10:19:01;;;;;;;4.82;1.85;;;0.60;99.90;;;;;;4847111;29;20375;-78
2024/01/07 10:21:27;;;;;;;4.13;1.77;;;0.60;99.90;;;;;;4865492;29;20616;-77
2024/01/07 10:24:10;;;;;;;3.28;1.45;;;0.70;99.90;;;;;;4855646;29;20109;-79
2024/01/07 10:26:40;;;;;;;3.90;1.58;;;0.70;99.90;;;;;;4886582;29;20057;-77
2024/01/07 10:29:06;;;;;;;4.25;1.73;;;0.70;99.90;;;;;;4847564;29;20050;-74
2024/01/07 10:31:32;;;;;;;3.63;1.90;;;0.70;99.90;;;;;;4869575;29;20073;-75
2024/01/07 10:33:58;;;;;;;5.20;1.50;;;0.70;99.90;;;;;;4852531;29;20041;-77
2024/01/07 10:36:25;;;;;;;3.40;1.63;;;0.80;99.90;;;;;;4864118;29;20507;-79
2024/01/07 10:38:51;;;;;;;2.78;1.17;;;0.80;99.90;;;;;;4845821;29;20053;-81
2024/01/07 10:41:19;;;;;;;3.92;1.15;;;0.80;99.90;;;;;;4874881;29;20076;-77
2024/01/07 10:43:48;;;;;;;2.25;1.20;;;0.90;99.90;;;;;;4855806;29;20435;-78
2024/01/07 10:46:15;;;;;;;3.03;1.45;;;0.90;99.90;;;;;;4863604;29;20041;-76
2024/01/07 10:49:04;;;;;;;4.13;1.40;;;0.90;99.90;;;;;;4873649;29;20053;-78
2024/01/07 10:51:34;;;;;;;3.45;1.67;;;0.90;99.90;;;;;;4852380;29;20060;-78
2024/01/07 10:53:59;;;;;;;3.35;1.20;;;0.90;99.90;;;;;;4858154;29;20569;-78
2024/01/07 10:56:37;;;;;;;3.03;1.23;;;0.90;99.90;;;;;;4855294;29;20053;-79
2024/01/07 10:59:03;;;;;;;1.65;1.10;;;0.90;99.90;;;;;;4845982;29;20109;-79
2024/01/07 11:01:29;;;;;;;2.47;1.42;;;0.90;99.90;;;;;;4872572;29;20057;-75
2024/01/07 11:04:19;;;;;;;3.67;1.13;;;1.00;99.90;;;;;;4862659;29;20140;-76
2024/01/07 11:07:08;;;;;;;2.95;1.30;;;1.00;99.90;;;;;;4874778;29;20561;-79
2024/01/07 11:09:54;;;;;;;4.18;1.27;;;1.00;99.90;;;;;;4861137;29;20081;-81
2024/01/07 11:12:20;;;;;;;3.38;1.60;;;1.00;99.90;;;;;;4857241;29;20053;-76
2024/01/07 11:14:52;;;;;;;4.60;1.27;;;1.00;99.90;;;;;;4865145;29;20129;-78
2024/01/07 11:17:37;;;;;;;2.00;1.25;;;1.00;99.90;;;;;;4867892;29;20045;-83
2024/01/07 11:20:14;;;;;;;2.47;1.20;;;1.00;99.90;;;;;;4885418;29;20037;-82
2024/01/07 11:22:39;;;;;;;3.55;1.25;;;1.00;99.90;;;;;;4866325;29;20066;-76
2024/01/07 11:25:32;;;;;;;3.85;1.55;;;1.00;99.90;;;;;;4865699;29;20088;-78
2024/01/07 11:28:00;;;;;;;5.95;1.67;;;1.00;99.90;;;;;;4866828;29;20053;-78
2024/01/07 11:30:26;;;;;;;2.13;1.35;;;1.10;99.90;;;;;;4876971;29;20055;-78
2024/01/07 11:33:01;;;;;;;2.97;1.60;;;1.10;99.90;;;;;;4867274;29;20052;-78
2024/01/07 11:35:52;;;;;;;1.83;1.30;;;1.10;99.90;;;;;;4854681;29;20054;-79
2024/01/07 11:38:18;;;;;;;2.70;1.55;;;1.10;99.90;;;;;;4843805;29;20079;-78
2024/01/07 11:40:45;;;;;;;3.47;1.70;;;1.10;99.90;;;;;;4865413;29;20064;-78
2024/01/07 11:43:11;;;;;;;2.80;1.10;;;1.10;99.90;;;;;;4856291;29;20041;-78
2024/01/07 11:45:36;;;;;;;4.57;1.70;;;1.10;99.90;;;;;;4860194;29;20048;-79
2024/01/07 11:48:02;;;;;;;4.05;1.60;;;1.10;99.90;;;;;;4859682;29;20099;-79
2024/01/07 11:50:28;;;;;;;3.40;1.17;;;1.20;99.90;;;;;;4865875;29;20125;-78
2024/01/07 11:52:54;;;;;;;3.88;1.70;;;1.20;99.90;;;;;;4867752;29;20045;-78
2024/01/07 11:55:20;;;;;;;3.50;1.73;;;1.20;99.90;;;;;;4863451;29;20038;-75
2024/01/07 11:57:46;;;;;;;1.92;1.45;;;1.20;99.90;;;;;;4860036;29;20049;-77
2024/01/07 12:00:13;;;;;;;2.83;1.40;;;1.20;99.90;;;;;;4851744;29;20505;-76
2024/01/07 12:02:38;;;;;;;3.80;1.70;;;1.30;99.90;;;;;;4852957;29;20184;-75
2024/01/07 12:05:04;;;;;;;2.40;1.45;;;1.30;99.90;;;;;;4885399;29;20553;-75
2024/01/07 12:07:30;;;;;;;3.95;1.55;;;1.30;99.90;;;;;;4868104;29;20050;-76
2024/01/07 12:09:57;;;;;;;2.53;1.58;;;1.30;99.90;;;;;;4851133;29;20049;-75
2024/01/07 12:12:23;;;;;;;;;;;1.40;99.90;;;;;;4865410;29;20128;-76
2024/01/07 12:14:49;;;;;;;4.72;1.83;;;1.30;99.90;;;;;;4849551;29;20323;-75
2024/01/07 12:17:17;;;;;;;2.80;1.73;;;1.40;99.90;;;;;;4863683;29;20115;-75
2024/01/07 12:19:43;;;;;;;;;;;1.40;99.90;;;;;;4871292;29;20064;-74
2024/01/07 12:22:09;;;;;;;3.13;1.67;;;1.30;99.90;;;;;;4853993;29;19959;-74
2024/01/07 12:24:35;;;;;;;4.57;2.00;;;1.30;99.90;;;;;;4864960;29;20200;-75
2024/01/07 12:27:05;;;;;;;4.43;1.90;;;1.30;99.90;;;;;;4867485;29;20037;-77
2024/01/07 12:29:31;;;;;;;4.35;2.05;;;1.40;99.90;;;;;;4873352;29;20052;-74
2024/01/07 12:31:56;;;;;;;3.83;1.92;;;1.40;99.90;;;;;;4867914;29;20053;-77
2024/01/07 12:34:24;;;;;;;7.47;2.20;;;1.40;99.90;;;;;;4858754;29;20037;-86
2024/01/07 12:36:51;;;;;;;4.38;2.42;;;1.40;99.90;;;;;;4847950;29;20053;-81
2024/01/07 12:39:18;;;;;;;3.53;2.03;;;1.50;99.90;;;;;;4844871;29;20478;-84
2024/01/07 12:41:43;;;;;;;4.97;1.70;;;1.50;99.90;;;;;;4854779;29;20362;-84
2024/01/07 12:44:09;;;;;;;5.10;2.00;;;1.60;99.90;;;;;;4841332;29;20053;-87
2024/01/07 12:46:35;;;;;;;6.05;2.53;;;1.60;99.90;;;;;;4848727;29;20049;-86
2024/01/07 12:49:00;;;;;;;3.13;1.70;;;1.60;99.90;;;;;;4846848;29;20125;-84